sensor_id;sensor_type;location;lat;lon;timestamp;P1;durP1;ratioP1;P2;durP2;ratioP2
36445;SDS011;22472;50.848;-1.216;2022-09-27T00:01:16;6.43;;;0.68;;
36445;SDS011;22472;50.848;-1.216;2022-09-27T00:03:43;3.85;;;0.40;;
36445;SDS011;22472;50.848;-1.216;2022-09-27T00:06:12;5.47;;;0.40;;
36445;SDS011;22472;50.848;-1.216;2022-09-27T00:08:40;6.32;;;0.45;;
36445;SDS011;22472;50.848;-1.216;2022-09-27T00:11:10;4.50;;;0.40;;
36445;SDS011;22472;50.848;-1.216;2022-09-27T00:13:42;3.25;;;0.30;;
36445;SDS011;22472;50.848;-1.216;2022-09-27T00:16:10;3.72;;;0.30;;
36445;SDS011;22472;50.848;-1.216;2022-09-27T00:18:38;5.07;;;0.40;;
36445;SDS011;22472;50.848;-1.216;2022-09-27T00:21:06;5.57;;;0.40;;
36445;SDS011;22472;50.848;-1.216;2022-09-27T00:23:35;3.88;;;0.20;;
36445;SDS011;22472;50.848;-1.216;2022-09-27T00:26:02;3.33;;;0.50;;
36445;SDS011;22472;50.848;-1.216;2022-09-27T00:28:30;5.25;;;0.40;;
36445;SDS011;22472;50.848;-1.216;2022-09-27T00:30:57;2.75;;;0.30;;
36445;SDS011;22472;50.848;-1.216;2022-09-27T00:33:25;3.47;;;0.43;;
36445;SDS011;22472;50.848;-1.216;2022-09-27T00:35:53;6.35;;;0.40;;
36445;SDS011;22472;50.848;-1.216;2022-09-27T00:38:20;3.80;;;0.40;;
36445;SDS011;22472;50.848;-1.216;2022-09-27T00:40:47;3.92;;;0.40;;
36445;SDS011;22472;50.848;-1.216;2022-09-27T00:43:16;2.53;;;0.30;;
36445;SDS011;22472;50.848;-1.216;2022-09-27T00:45:46;4.47;;;0.40;;
36445;SDS011;22472;50.848;-1.216;2022-09-27T00:48:17;5.82;;;0.43;;
36445;SDS011;22472;50.848;-1.216;2022-09-27T00:53:18;5.00;;;0.50;;
36445;SDS011;22472;50.848;-1.216;2022-09-27T00:55:50;4.65;;;0.40;;
36445;SDS011;22472;50.848;-1.216;2022-09-27T00:58:20;4.03;;;0.45;;
36445;SDS011;22472;50.848;-1.216;2022-09-27T01:00:50;3.55;;;0.30;;
36445;SDS011;22472;50.848;-1.216;2022-09-27T01:05:51;3.25;;;0.30;;
36445;SDS011;22472;50.848;-1.216;2022-09-27T01:08:20;3.28;;;0.30;;
36445;SDS011;22472;50.848;-1.216;2022-09-27T01:10:50;3.50;;;0.40;;
36445;SDS011;22472;50.848;-1.216;2022-09-27T01:13:27;3.85;;;0.40;;
36445;SDS011;22472;50.848;-1.216;2022-09-27T01:16:03;2.03;;;0.20;;
36445;SDS011;22472;50.848;-1.216;2022-09-27T01:18:41;4.07;;;0.22;;
36445;SDS011;22472;50.848;-1.216;2022-09-27T01:21:23;4.68;;;0.30;;
36445;SDS011;22472;50.848;-1.216;2022-09-27T01:24:07;3.83;;;0.25;;
36445;SDS011;22472;50.848;-1.216;2022-09-27T01:26:55;7.25;;;0.40;;
36445;SDS011;22472;50.848;-1.216;2022-09-27T01:29:48;3.05;;;0.35;;
36445;SDS011;22472;50.848;-1.216;2022-09-27T01:32:31;3.30;;;0.30;;
36445;SDS011;22472;50.848;-1.216;2022-09-27T01:35:02;5.43;;;0.45;;
36445;SDS011;22472;50.848;-1.216;2022-09-27T01:37:34;3.38;;;0.50;;
36445;SDS011;22472;50.848;-1.216;2022-09-27T01:40:12;5.00;;;0.20;;
36445;SDS011;22472;50.848;-1.216;2022-09-27T01:42:46;3.58;;;0.40;;
36445;SDS011;22472;50.848;-1.216;2022-09-27T01:45:17;3.17;;;0.28;;
36445;SDS011;22472;50.848;-1.216;2022-09-27T01:47:50;4.68;;;0.30;;
36445;SDS011;22472;50.848;-1.216;2022-09-27T01:50:21;4.97;;;0.40;;
36445;SDS011;22472;50.848;-1.216;2022-09-27T01:52:56;3.50;;;0.30;;
36445;SDS011;22472;50.848;-1.216;2022-09-27T01:55:27;4.93;;;0.55;;
36445;SDS011;22472;50.848;-1.216;2022-09-27T01:57:58;2.95;;;0.32;;
36445;SDS011;22472;50.848;-1.216;2022-09-27T02:00:29;5.30;;;0.40;;
36445;SDS011;22472;50.848;-1.216;2022-09-27T02:06:08;4.22;;;0.28;;
36445;SDS011;22472;50.848;-1.216;2022-09-27T02:08:39;6.78;;;0.40;;
36445;SDS011;22472;50.848;-1.216;2022-09-27T02:13:37;4.47;;;0.47;;
36445;SDS011;22472;50.848;-1.216;2022-09-27T02:16:10;4.43;;;0.30;;
36445;SDS011;22472;50.848;-1.216;2022-09-27T02:18:49;5.88;;;0.38;;
36445;SDS011;22472;50.848;-1.216;2022-09-27T02:21:22;5.25;;;0.50;;
36445;SDS011;22472;50.848;-1.216;2022-09-27T02:23:57;5.75;;;0.50;;
36445;SDS011;22472;50.848;-1.216;2022-09-27T02:26:28;4.82;;;0.30;;
36445;SDS011;22472;50.848;-1.216;2022-09-27T02:29:04;4.82;;;0.25;;
36445;SDS011;22472;50.848;-1.216;2022-09-27T02:31:35;2.45;;;0.38;;
36445;SDS011;22472;50.848;-1.216;2022-09-27T02:34:04;6.38;;;0.40;;
36445;SDS011;22472;50.848;-1.216;2022-09-27T02:36:35;6.20;;;0.50;;
36445;SDS011;22472;50.848;-1.216;2022-09-27T02:39:03;4.97;;;0.40;;
36445;SDS011;22472;50.848;-1.216;2022-09-27T02:41:30;4.20;;;0.30;;
36445;SDS011;22472;50.848;-1.216;2022-09-27T02:43:59;6.13;;;0.35;;
36445;SDS011;22472;50.848;-1.216;2022-09-27T02:46:38;6.47;;;0.38;;
36445;SDS011;22472;50.848;-1.216;2022-09-27T02:52:16;6.70;;;0.40;;
36445;SDS011;22472;50.848;-1.216;2022-09-27T02:54:55;6.72;;;0.55;;
36445;SDS011;22472;50.848;-1.216;2022-09-27T02:57:34;6.47;;;0.50;;
36445;SDS011;22472;50.848;-1.216;2022-09-27T03:00:07;4.80;;;0.43;;
36445;SDS011;22472;50.848;-1.216;2022-09-27T03:02:40;3.63;;;0.50;;
36445;SDS011;22472;50.848;-1.216;2022-09-27T03:05:17;5.47;;;0.50;;
36445;SDS011;22472;50.848;-1.216;2022-09-27T03:07:48;6.18;;;0.40;;
36445;SDS011;22472;50.848;-1.216;2022-09-27T03:10:16;5.82;;;0.65;;
36445;SDS011;22472;50.848;-1.216;2022-09-27T03:12:45;4.43;;;0.35;;
36445;SDS011;22472;50.848;-1.216;2022-09-27T03:15:12;4.35;;;0.40;;
36445;SDS011;22472;50.848;-1.216;2022-09-27T03:17:39;5.68;;;0.40;;
36445;SDS011;22472;50.848;-1.216;2022-09-27T03:20:06;9.15;;;0.50;;
36445;SDS011;22472;50.848;-1.216;2022-09-27T03:22:34;4.85;;;0.43;;
36445;SDS011;22472;50.848;-1.216;2022-09-27T03:25:04;3.40;;;0.50;;
36445;SDS011;22472;50.848;-1.216;2022-09-27T03:27:31;7.38;;;0.70;;
36445;SDS011;22472;50.848;-1.216;2022-09-27T03:29:58;5.57;;;0.45;;
36445;SDS011;22472;50.848;-1.216;2022-09-27T03:32:25;6.60;;;0.60;;
36445;SDS011;22472;50.848;-1.216;2022-09-27T03:34:53;6.05;;;0.57;;
36445;SDS011;22472;50.848;-1.216;2022-09-27T03:37:20;5.25;;;0.32;;
36445;SDS011;22472;50.848;-1.216;2022-09-27T03:39:47;5.32;;;0.60;;
36445;SDS011;22472;50.848;-1.216;2022-09-27T03:42:16;5.97;;;0.50;;
36445;SDS011;22472;50.848;-1.216;2022-09-27T03:44:43;6.35;;;0.65;;
36445;SDS011;22472;50.848;-1.216;2022-09-27T03:47:10;5.38;;;0.50;;
36445;SDS011;22472;50.848;-1.216;2022-09-27T03:49:37;7.57;;;0.70;;
36445;SDS011;22472;50.848;-1.216;2022-09-27T03:52:04;7.82;;;0.70;;
36445;SDS011;22472;50.848;-1.216;2022-09-27T03:54:31;5.40;;;0.70;;
36445;SDS011;22472;50.848;-1.216;2022-09-27T03:56:58;7.65;;;0.70;;
36445;SDS011;22472;50.848;-1.216;2022-09-27T03:59:27;8.20;;;0.80;;
36445;SDS011;22472;50.848;-1.216;2022-09-27T04:01:54;5.05;;;0.52;;
36445;SDS011;22472;50.848;-1.216;2022-09-27T04:04:21;3.88;;;0.40;;
36445;SDS011;22472;50.848;-1.216;2022-09-27T04:06:49;5.40;;;0.30;;
36445;SDS011;22472;50.848;-1.216;2022-09-27T04:09:16;5.75;;;0.70;;
36445;SDS011;22472;50.848;-1.216;2022-09-27T04:11:43;7.32;;;0.60;;
36445;SDS011;22472;50.848;-1.216;2022-09-27T04:14:10;6.68;;;0.45;;
36445;SDS011;22472;50.848;-1.216;2022-09-27T04:16:39;5.18;;;0.70;;
36445;SDS011;22472;50.848;-1.216;2022-09-27T04:19:06;7.28;;;0.35;;
36445;SDS011;22472;50.848;-1.216;2022-09-27T04:21:34;6.38;;;0.45;;
36445;SDS011;22472;50.848;-1.216;2022-09-27T04:24:01;5.72;;;0.60;;
36445;SDS011;22472;50.848;-1.216;2022-09-27T04:26:29;5.60;;;0.50;;
36445;SDS011;22472;50.848;-1.216;2022-09-27T04:28:56;4.05;;;0.40;;
36445;SDS011;22472;50.848;-1.216;2022-09-27T04:31:23;5.85;;;0.50;;
36445;SDS011;22472;50.848;-1.216;2022-09-27T04:33:52;6.88;;;0.73;;
36445;SDS011;22472;50.848;-1.216;2022-09-27T04:36:19;6.88;;;0.50;;
36445;SDS011;22472;50.848;-1.216;2022-09-27T04:38:53;5.00;;;0.47;;
36445;SDS011;22472;50.848;-1.216;2022-09-27T04:41:21;7.00;;;0.47;;
36445;SDS011;22472;50.848;-1.216;2022-09-27T04:43:49;4.72;;;0.60;;
36445;SDS011;22472;50.848;-1.216;2022-09-27T04:46:16;5.47;;;0.70;;
36445;SDS011;22472;50.848;-1.216;2022-09-27T04:48:44;4.78;;;0.50;;
36445;SDS011;22472;50.848;-1.216;2022-09-27T04:51:13;3.42;;;0.47;;
36445;SDS011;22472;50.848;-1.216;2022-09-27T04:53:41;4.10;;;0.40;;
36445;SDS011;22472;50.848;-1.216;2022-09-27T04:56:09;5.00;;;0.73;;
36445;SDS011;22472;50.848;-1.216;2022-09-27T04:58:36;5.28;;;0.70;;
36445;SDS011;22472;50.848;-1.216;2022-09-27T05:01:04;8.27;;;0.68;;
36445;SDS011;22472;50.848;-1.216;2022-09-27T05:03:33;9.57;;;0.80;;
36445;SDS011;22472;50.848;-1.216;2022-09-27T05:06:00;8.00;;;0.85;;
36445;SDS011;22472;50.848;-1.216;2022-09-27T05:08:29;8.23;;;1.02;;
36445;SDS011;22472;50.848;-1.216;2022-09-27T05:10:56;9.48;;;1.33;;
36445;SDS011;22472;50.848;-1.216;2022-09-27T05:13:23;7.63;;;0.88;;
36445;SDS011;22472;50.848;-1.216;2022-09-27T05:15:50;6.53;;;0.90;;
36445;SDS011;22472;50.848;-1.216;2022-09-27T05:18:18;9.32;;;1.02;;
36445;SDS011;22472;50.848;-1.216;2022-09-27T05:20:45;9.35;;;1.10;;
36445;SDS011;22472;50.848;-1.216;2022-09-27T05:23:12;8.30;;;0.95;;
36445;SDS011;22472;50.848;-1.216;2022-09-27T05:25:40;9.38;;;1.17;;
36445;SDS011;22472;50.848;-1.216;2022-09-27T05:28:08;8.25;;;0.93;;
36445;SDS011;22472;50.848;-1.216;2022-09-27T05:30:35;9.52;;;1.10;;
36445;SDS011;22472;50.848;-1.216;2022-09-27T05:33:02;9.40;;;0.80;;
36445;SDS011;22472;50.848;-1.216;2022-09-27T05:35:29;7.60;;;1.05;;
36445;SDS011;22472;50.848;-1.216;2022-09-27T05:37:58;10.52;;;0.95;;
36445;SDS011;22472;50.848;-1.216;2022-09-27T05:40:26;8.27;;;0.77;;
36445;SDS011;22472;50.848;-1.216;2022-09-27T05:42:55;9.30;;;1.08;;
36445;SDS011;22472;50.848;-1.216;2022-09-27T05:45:23;5.70;;;0.80;;
36445;SDS011;22472;50.848;-1.216;2022-09-27T05:47:51;7.05;;;0.70;;
36445;SDS011;22472;50.848;-1.216;2022-09-27T05:50:19;10.48;;;0.82;;
36445;SDS011;22472;50.848;-1.216;2022-09-27T05:52:46;10.57;;;1.08;;
36445;SDS011;22472;50.848;-1.216;2022-09-27T05:55:13;10.50;;;1.17;;
36445;SDS011;22472;50.848;-1.216;2022-09-27T05:57:41;8.95;;;1.52;;
36445;SDS011;22472;50.848;-1.216;2022-09-27T06:00:09;8.32;;;0.98;;
36445;SDS011;22472;50.848;-1.216;2022-09-27T06:02:37;9.18;;;1.17;;
36445;SDS011;22472;50.848;-1.216;2022-09-27T06:05:04;8.68;;;1.38;;
36445;SDS011;22472;50.848;-1.216;2022-09-27T06:07:35;10.07;;;1.30;;
36445;SDS011;22472;50.848;-1.216;2022-09-27T06:10:05;8.90;;;1.08;;
36445;SDS011;22472;50.848;-1.216;2022-09-27T06:12:32;11.13;;;1.73;;
36445;SDS011;22472;50.848;-1.216;2022-09-27T06:14:59;13.68;;;1.80;;
36445;SDS011;22472;50.848;-1.216;2022-09-27T06:17:27;10.88;;;1.23;;
36445;SDS011;22472;50.848;-1.216;2022-09-27T06:19:54;8.73;;;1.20;;
36445;SDS011;22472;50.848;-1.216;2022-09-27T06:22:22;12.73;;;1.30;;
36445;SDS011;22472;50.848;-1.216;2022-09-27T06:24:49;12.55;;;1.48;;
36445;SDS011;22472;50.848;-1.216;2022-09-27T06:27:16;13.98;;;1.55;;
36445;SDS011;22472;50.848;-1.216;2022-09-27T06:29:43;8.80;;;1.25;;
36445;SDS011;22472;50.848;-1.216;2022-09-27T06:32:11;11.55;;;1.23;;
36445;SDS011;22472;50.848;-1.216;2022-09-27T06:34:39;11.38;;;1.50;;
36445;SDS011;22472;50.848;-1.216;2022-09-27T06:37:06;11.98;;;1.92;;
36445;SDS011;22472;50.848;-1.216;2022-09-27T06:39:33;10.52;;;1.88;;
36445;SDS011;22472;50.848;-1.216;2022-09-27T06:42:00;14.18;;;1.50;;
36445;SDS011;22472;50.848;-1.216;2022-09-27T06:44:27;12.95;;;1.60;;
36445;SDS011;22472;50.848;-1.216;2022-09-27T06:46:54;11.32;;;1.42;;
36445;SDS011;22472;50.848;-1.216;2022-09-27T06:49:21;9.70;;;1.35;;
36445;SDS011;22472;50.848;-1.216;2022-09-27T06:51:51;12.50;;;1.85;;
36445;SDS011;22472;50.848;-1.216;2022-09-27T06:54:19;13.50;;;1.67;;
36445;SDS011;22472;50.848;-1.216;2022-09-27T06:56:46;12.35;;;1.60;;
36445;SDS011;22472;50.848;-1.216;2022-09-27T06:59:13;11.82;;;1.88;;
36445;SDS011;22472;50.848;-1.216;2022-09-27T07:01:58;14.00;;;2.13;;
36445;SDS011;22472;50.848;-1.216;2022-09-27T07:04:26;11.30;;;1.38;;
36445;SDS011;22472;50.848;-1.216;2022-09-27T07:06:54;12.25;;;1.73;;
36445;SDS011;22472;50.848;-1.216;2022-09-27T07:09:22;17.05;;;2.28;;
36445;SDS011;22472;50.848;-1.216;2022-09-27T07:11:49;14.52;;;1.90;;
36445;SDS011;22472;50.848;-1.216;2022-09-27T07:14:19;17.95;;;1.70;;
36445;SDS011;22472;50.848;-1.216;2022-09-27T07:16:46;12.98;;;1.83;;
36445;SDS011;22472;50.848;-1.216;2022-09-27T07:19:13;10.73;;;1.50;;
36445;SDS011;22472;50.848;-1.216;2022-09-27T07:21:42;16.80;;;1.95;;
36445;SDS011;22472;50.848;-1.216;2022-09-27T07:24:11;11.60;;;1.85;;
36445;SDS011;22472;50.848;-1.216;2022-09-27T07:26:38;9.07;;;1.30;;
36445;SDS011;22472;50.848;-1.216;2022-09-27T07:29:05;12.68;;;1.50;;
36445;SDS011;22472;50.848;-1.216;2022-09-27T07:31:32;12.50;;;1.40;;
36445;SDS011;22472;50.848;-1.216;2022-09-27T07:33:58;12.38;;;1.58;;
36445;SDS011;22472;50.848;-1.216;2022-09-27T07:36:25;13.60;;;1.90;;
36445;SDS011;22472;50.848;-1.216;2022-09-27T07:38:54;9.30;;;1.55;;
36445;SDS011;22472;50.848;-1.216;2022-09-27T07:41:22;15.65;;;1.88;;
36445;SDS011;22472;50.848;-1.216;2022-09-27T07:43:49;11.27;;;1.35;;
36445;SDS011;22472;50.848;-1.216;2022-09-27T07:46:16;11.10;;;1.30;;
36445;SDS011;22472;50.848;-1.216;2022-09-27T07:48:44;14.82;;;1.90;;
36445;SDS011;22472;50.848;-1.216;2022-09-27T07:51:12;14.80;;;1.60;;
36445;SDS011;22472;50.848;-1.216;2022-09-27T07:53:39;15.05;;;2.00;;
36445;SDS011;22472;50.848;-1.216;2022-09-27T07:56:06;13.88;;;2.03;;
36445;SDS011;22472;50.848;-1.216;2022-09-27T07:58:35;11.02;;;1.58;;
36445;SDS011;22472;50.848;-1.216;2022-09-27T08:01:02;9.50;;;1.52;;
36445;SDS011;22472;50.848;-1.216;2022-09-27T08:03:29;11.25;;;1.63;;
36445;SDS011;22472;50.848;-1.216;2022-09-27T08:05:56;13.48;;;1.77;;
36445;SDS011;22472;50.848;-1.216;2022-09-27T08:08:27;12.40;;;1.40;;
36445;SDS011;22472;50.848;-1.216;2022-09-27T08:10:54;12.02;;;1.58;;
36445;SDS011;22472;50.848;-1.216;2022-09-27T08:13:21;13.68;;;1.80;;
36445;SDS011;22472;50.848;-1.216;2022-09-27T08:15:49;9.20;;;1.55;;
36445;SDS011;22472;50.848;-1.216;2022-09-27T08:18:17;14.25;;;1.80;;
36445;SDS011;22472;50.848;-1.216;2022-09-27T08:20:46;10.23;;;1.70;;
36445;SDS011;22472;50.848;-1.216;2022-09-27T08:23:13;11.98;;;1.85;;
36445;SDS011;22472;50.848;-1.216;2022-09-27T08:25:40;13.70;;;1.70;;
36445;SDS011;22472;50.848;-1.216;2022-09-27T08:28:08;12.43;;;1.73;;
36445;SDS011;22472;50.848;-1.216;2022-09-27T08:30:35;10.70;;;1.58;;
36445;SDS011;22472;50.848;-1.216;2022-09-27T08:33:03;10.95;;;1.45;;
36445;SDS011;22472;50.848;-1.216;2022-09-27T08:35:31;10.55;;;1.15;;
36445;SDS011;22472;50.848;-1.216;2022-09-27T08:37:58;11.52;;;1.83;;
36445;SDS011;22472;50.848;-1.216;2022-09-27T08:40:27;9.40;;;1.55;;
36445;SDS011;22472;50.848;-1.216;2022-09-27T08:43:07;8.95;;;1.50;;
36445;SDS011;22472;50.848;-1.216;2022-09-27T08:45:45;11.50;;;1.60;;
36445;SDS011;22472;50.848;-1.216;2022-09-27T08:48:22;11.40;;;1.50;;
36445;SDS011;22472;50.848;-1.216;2022-09-27T08:50:53;11.02;;;1.60;;
36445;SDS011;22472;50.848;-1.216;2022-09-27T08:53:22;12.65;;;1.80;;
36445;SDS011;22472;50.848;-1.216;2022-09-27T08:55:54;12.40;;;1.70;;
36445;SDS011;22472;50.848;-1.216;2022-09-27T08:58:24;12.40;;;1.95;;
36445;SDS011;22472;50.848;-1.216;2022-09-27T09:00:53;10.63;;;1.90;;
36445;SDS011;22472;50.848;-1.216;2022-09-27T09:03:24;13.15;;;2.25;;
36445;SDS011;22472;50.848;-1.216;2022-09-27T09:05:59;12.63;;;1.67;;
36445;SDS011;22472;50.848;-1.216;2022-09-27T09:08:37;10.73;;;1.70;;
36445;SDS011;22472;50.848;-1.216;2022-09-27T09:11:15;12.75;;;1.90;;
36445;SDS011;22472;50.848;-1.216;2022-09-27T09:14:15;12.52;;;1.98;;
36445;SDS011;22472;50.848;-1.216;2022-09-27T09:16:50;11.25;;;1.73;;
36445;SDS011;22472;50.848;-1.216;2022-09-27T09:19:29;13.27;;;2.10;;
36445;SDS011;22472;50.848;-1.216;2022-09-27T09:22:14;11.07;;;1.88;;
36445;SDS011;22472;50.848;-1.216;2022-09-27T09:24:57;14.20;;;2.22;;
36445;SDS011;22472;50.848;-1.216;2022-09-27T09:27:33;12.52;;;1.95;;
36445;SDS011;22472;50.848;-1.216;2022-09-27T09:30:27;11.18;;;1.83;;
36445;SDS011;22472;50.848;-1.216;2022-09-27T09:33:09;14.80;;;2.03;;
36445;SDS011;22472;50.848;-1.216;2022-09-27T09:35:43;15.95;;;2.13;;
36445;SDS011;22472;50.848;-1.216;2022-09-27T09:38:17;10.00;;;1.77;;
36445;SDS011;22472;50.848;-1.216;2022-09-27T09:40:47;14.90;;;2.80;;
36445;SDS011;22472;50.848;-1.216;2022-09-27T09:43:19;13.35;;;2.15;;
36445;SDS011;22472;50.848;-1.216;2022-09-27T09:45:52;11.70;;;1.88;;
36445;SDS011;22472;50.848;-1.216;2022-09-27T09:48:27;13.63;;;2.13;;
36445;SDS011;22472;50.848;-1.216;2022-09-27T09:50:59;12.48;;;2.20;;
36445;SDS011;22472;50.848;-1.216;2022-09-27T09:53:35;15.18;;;2.25;;
36445;SDS011;22472;50.848;-1.216;2022-09-27T09:56:07;16.60;;;2.20;;
36445;SDS011;22472;50.848;-1.216;2022-09-27T09:58:41;12.25;;;2.55;;
36445;SDS011;22472;50.848;-1.216;2022-09-27T10:01:13;10.38;;;2.17;;
36445;SDS011;22472;50.848;-1.216;2022-09-27T10:03:44;18.10;;;2.42;;
36445;SDS011;22472;50.848;-1.216;2022-09-27T10:06:13;16.85;;;2.60;;
36445;SDS011;22472;50.848;-1.216;2022-09-27T10:08:42;14.48;;;2.50;;
36445;SDS011;22472;50.848;-1.216;2022-09-27T10:11:11;15.98;;;2.50;;
36445;SDS011;22472;50.848;-1.216;2022-09-27T10:13:45;18.98;;;2.55;;
36445;SDS011;22472;50.848;-1.216;2022-09-27T10:16:13;17.05;;;2.85;;
36445;SDS011;22472;50.848;-1.216;2022-09-27T10:18:42;18.80;;;2.63;;
36445;SDS011;22472;50.848;-1.216;2022-09-27T10:21:13;18.35;;;2.70;;
36445;SDS011;22472;50.848;-1.216;2022-09-27T10:26:28;18.48;;;3.10;;
36445;SDS011;22472;50.848;-1.216;2022-09-27T10:28:55;10.68;;;1.70;;
36445;SDS011;22472;50.848;-1.216;2022-09-27T10:31:23;8.27;;;1.25;;
36445;SDS011;22472;50.848;-1.216;2022-09-27T10:33:52;8.57;;;1.10;;
36445;SDS011;22472;50.848;-1.216;2022-09-27T10:36:23;9.00;;;1.23;;
36445;SDS011;22472;50.848;-1.216;2022-09-27T10:38:53;5.90;;;1.05;;
36445;SDS011;22472;50.848;-1.216;2022-09-27T10:41:23;8.43;;;1.10;;
36445;SDS011;22472;50.848;-1.216;2022-09-27T10:46:23;6.97;;;1.15;;
36445;SDS011;22472;50.848;-1.216;2022-09-27T10:49:08;8.73;;;1.42;;
36445;SDS011;22472;50.848;-1.216;2022-09-27T10:51:40;11.02;;;1.50;;
36445;SDS011;22472;50.848;-1.216;2022-09-27T10:54:20;8.52;;;1.38;;
36445;SDS011;22472;50.848;-1.216;2022-09-27T10:56:55;9.82;;;1.80;;
36445;SDS011;22472;50.848;-1.216;2022-09-27T10:59:24;10.50;;;1.65;;
36445;SDS011;22472;50.848;-1.216;2022-09-27T11:01:54;11.15;;;2.05;;
36445;SDS011;22472;50.848;-1.216;2022-09-27T11:04:25;9.65;;;1.85;;
36445;SDS011;22472;50.848;-1.216;2022-09-27T11:07:06;10.20;;;2.22;;
36445;SDS011;22472;50.848;-1.216;2022-09-27T11:09:46;10.65;;;1.88;;
36445;SDS011;22472;50.848;-1.216;2022-09-27T11:12:15;10.73;;;1.70;;
36445;SDS011;22472;50.848;-1.216;2022-09-27T11:14:48;10.88;;;1.73;;
36445;SDS011;22472;50.848;-1.216;2022-09-27T11:17:21;14.82;;;2.65;;
36445;SDS011;22472;50.848;-1.216;2022-09-27T11:19:59;15.40;;;2.70;;
36445;SDS011;22472;50.848;-1.216;2022-09-27T11:22:38;11.85;;;2.03;;
36445;SDS011;22472;50.848;-1.216;2022-09-27T11:25:28;15.30;;;3.00;;
36445;SDS011;22472;50.848;-1.216;2022-09-27T11:28:07;12.48;;;2.75;;
36445;SDS011;22472;50.848;-1.216;2022-09-27T11:30:42;11.52;;;2.38;;
36445;SDS011;22472;50.848;-1.216;2022-09-27T11:33:34;15.80;;;3.20;;
36445;SDS011;22472;50.848;-1.216;2022-09-27T11:36:27;15.07;;;2.03;;
36445;SDS011;22472;50.848;-1.216;2022-09-27T11:39:05;15.30;;;3.05;;
36445;SDS011;22472;50.848;-1.216;2022-09-27T11:41:45;18.23;;;3.10;;
36445;SDS011;22472;50.848;-1.216;2022-09-27T11:44:30;15.40;;;2.83;;
36445;SDS011;22472;50.848;-1.216;2022-09-27T11:47:13;13.68;;;2.75;;
36445;SDS011;22472;50.848;-1.216;2022-09-27T11:49:53;18.63;;;3.28;;
36445;SDS011;22472;50.848;-1.216;2022-09-27T11:52:46;18.27;;;3.30;;
36445;SDS011;22472;50.848;-1.216;2022-09-27T11:55:33;17.13;;;3.28;;
36445;SDS011;22472;50.848;-1.216;2022-09-27T11:58:09;14.95;;;2.75;;
36445;SDS011;22472;50.848;-1.216;2022-09-27T12:00:47;15.43;;;3.05;;
36445;SDS011;22472;50.848;-1.216;2022-09-27T12:03:39;17.55;;;3.05;;
36445;SDS011;22472;50.848;-1.216;2022-09-27T12:09:02;16.85;;;2.80;;
36445;SDS011;22472;50.848;-1.216;2022-09-27T12:11:35;16.60;;;2.70;;
36445;SDS011;22472;50.848;-1.216;2022-09-27T12:14:07;15.73;;;2.72;;
36445;SDS011;22472;50.848;-1.216;2022-09-27T12:16:40;13.77;;;2.67;;
36445;SDS011;22472;50.848;-1.216;2022-09-27T12:19:11;17.15;;;2.83;;
36445;SDS011;22472;50.848;-1.216;2022-09-27T12:21:44;14.18;;;2.33;;
36445;SDS011;22472;50.848;-1.216;2022-09-27T12:24:14;12.35;;;2.47;;
36445;SDS011;22472;50.848;-1.216;2022-09-27T12:26:47;13.18;;;2.63;;
36445;SDS011;22472;50.848;-1.216;2022-09-27T12:29:18;13.32;;;2.38;;
36445;SDS011;22472;50.848;-1.216;2022-09-27T12:31:50;14.60;;;2.45;;
36445;SDS011;22472;50.848;-1.216;2022-09-27T12:34:24;17.38;;;2.47;;
36445;SDS011;22472;50.848;-1.216;2022-09-27T12:36:57;13.30;;;2.42;;
36445;SDS011;22472;50.848;-1.216;2022-09-27T12:39:31;13.43;;;2.33;;
36445;SDS011;22472;50.848;-1.216;2022-09-27T12:42:09;12.93;;;2.10;;
36445;SDS011;22472;50.848;-1.216;2022-09-27T12:44:41;14.23;;;2.67;;
36445;SDS011;22472;50.848;-1.216;2022-09-27T12:47:10;14.50;;;3.00;;
36445;SDS011;22472;50.848;-1.216;2022-09-27T12:49:46;14.52;;;3.25;;
36445;SDS011;22472;50.848;-1.216;2022-09-27T12:52:20;11.80;;;2.00;;
36445;SDS011;22472;50.848;-1.216;2022-09-27T12:57:53;13.93;;;2.28;;
36445;SDS011;22472;50.848;-1.216;2022-09-27T13:00:33;14.93;;;2.22;;
36445;SDS011;22472;50.848;-1.216;2022-09-27T13:09:22;12.18;;;2.30;;
36445;SDS011;22472;50.848;-1.216;2022-09-27T13:12:08;12.52;;;1.73;;
36445;SDS011;22472;50.848;-1.216;2022-09-27T13:14:41;12.60;;;2.20;;
36445;SDS011;22472;50.848;-1.216;2022-09-27T13:20:38;13.93;;;1.80;;
36445;SDS011;22472;50.848;-1.216;2022-09-27T13:29:23;14.35;;;1.88;;
36445;SDS011;22472;50.848;-1.216;2022-09-27T13:34:44;12.82;;;2.08;;
36445;SDS011;22472;50.848;-1.216;2022-09-27T13:40:25;15.32;;;2.25;;
36445;SDS011;22472;50.848;-1.216;2022-09-27T13:43:02;14.60;;;2.10;;
36445;SDS011;22472;50.848;-1.216;2022-09-27T13:45:51;13.32;;;2.17;;
36445;SDS011;22472;50.848;-1.216;2022-09-27T13:48:23;14.38;;;2.42;;
36445;SDS011;22472;50.848;-1.216;2022-09-27T13:50:56;13.48;;;2.50;;
36445;SDS011;22472;50.848;-1.216;2022-09-27T13:53:28;16.00;;;2.42;;
36445;SDS011;22472;50.848;-1.216;2022-09-27T13:55:59;13.38;;;2.47;;
36445;SDS011;22472;50.848;-1.216;2022-09-27T13:58:34;12.45;;;1.98;;
36445;SDS011;22472;50.848;-1.216;2022-09-27T14:01:15;16.58;;;2.75;;
36445;SDS011;22472;50.848;-1.216;2022-09-27T14:03:48;14.65;;;2.35;;
36445;SDS011;22472;50.848;-1.216;2022-09-27T14:06:18;18.02;;;2.30;;
36445;SDS011;22472;50.848;-1.216;2022-09-27T14:08:50;13.02;;;2.50;;
36445;SDS011;22472;50.848;-1.216;2022-09-27T14:13:50;11.93;;;2.20;;
36445;SDS011;22472;50.848;-1.216;2022-09-27T14:16:18;18.35;;;2.95;;
36445;SDS011;22472;50.848;-1.216;2022-09-27T14:18:46;14.55;;;2.40;;
36445;SDS011;22472;50.848;-1.216;2022-09-27T14:21:21;11.98;;;2.30;;
36445;SDS011;22472;50.848;-1.216;2022-09-27T14:26:49;18.75;;;2.80;;
36445;SDS011;22472;50.848;-1.216;2022-09-27T14:29:16;17.73;;;2.75;;
36445;SDS011;22472;50.848;-1.216;2022-09-27T14:31:45;14.07;;;2.13;;
36445;SDS011;22472;50.848;-1.216;2022-09-27T14:34:14;13.77;;;2.72;;
36445;SDS011;22472;50.848;-1.216;2022-09-27T14:36:42;16.25;;;2.92;;
36445;SDS011;22472;50.848;-1.216;2022-09-27T14:39:28;13.77;;;2.28;;
36445;SDS011;22472;50.848;-1.216;2022-09-27T14:41:56;19.10;;;2.67;;
36445;SDS011;22472;50.848;-1.216;2022-09-27T14:44:24;17.08;;;2.53;;
36445;SDS011;22472;50.848;-1.216;2022-09-27T14:47:07;18.25;;;2.92;;
36445;SDS011;22472;50.848;-1.216;2022-09-27T14:49:44;15.05;;;2.42;;
36445;SDS011;22472;50.848;-1.216;2022-09-27T14:52:15;17.20;;;2.53;;
36445;SDS011;22472;50.848;-1.216;2022-09-27T14:54:53;18.40;;;2.70;;
36445;SDS011;22472;50.848;-1.216;2022-09-27T14:57:25;16.20;;;2.55;;
36445;SDS011;22472;50.848;-1.216;2022-09-27T14:59:54;16.20;;;2.90;;
36445;SDS011;22472;50.848;-1.216;2022-09-27T15:02:22;16.25;;;2.75;;
36445;SDS011;22472;50.848;-1.216;2022-09-27T15:04:51;14.30;;;2.28;;
36445;SDS011;22472;50.848;-1.216;2022-09-27T15:07:19;15.23;;;2.40;;
36445;SDS011;22472;50.848;-1.216;2022-09-27T15:09:47;15.63;;;2.67;;
36445;SDS011;22472;50.848;-1.216;2022-09-27T15:12:17;17.05;;;3.13;;
36445;SDS011;22472;50.848;-1.216;2022-09-27T15:14:50;18.05;;;2.95;;
36445;SDS011;22472;50.848;-1.216;2022-09-27T15:17:20;17.92;;;3.15;;
36445;SDS011;22472;50.848;-1.216;2022-09-27T15:19:58;14.85;;;3.00;;
36445;SDS011;22472;50.848;-1.216;2022-09-27T15:22:32;14.65;;;3.17;;
36445;SDS011;22472;50.848;-1.216;2022-09-27T15:25:03;19.80;;;4.35;;
36445;SDS011;22472;50.848;-1.216;2022-09-27T15:27:33;19.40;;;3.83;;
36445;SDS011;22472;50.848;-1.216;2022-09-27T15:30:00;19.38;;;3.30;;
36445;SDS011;22472;50.848;-1.216;2022-09-27T15:32:27;15.95;;;3.72;;
36445;SDS011;22472;50.848;-1.216;2022-09-27T15:34:55;15.38;;;3.75;;
36445;SDS011;22472;50.848;-1.216;2022-09-27T15:37:33;15.10;;;3.53;;
36445;SDS011;22472;50.848;-1.216;2022-09-27T15:40:05;16.35;;;3.33;;
36445;SDS011;22472;50.848;-1.216;2022-09-27T15:43:12;17.17;;;3.58;;
36445;SDS011;22472;50.848;-1.216;2022-09-27T15:45:47;17.13;;;3.45;;